createdAt,value
2018-06-17T05:34:27.617Z,23.7
2018-06-17T05:35:18.000Z,23.8
2018-06-17T05:36:07.497Z,23.7
2018-06-17T05:36:57.553Z,24.1
2018-06-17T05:37:47.887Z,25.1
2018-06-17T05:38:37.969Z,26.3
2018-06-17T05:39:27.780Z,28.4
2018-06-17T05:40:18.360Z,28.8
2018-06-17T05:41:08.111Z,28.3
2018-06-17T05:41:58.523Z,27.9
2018-06-17T05:42:48.356Z,27.3
2018-06-17T05:43:38.689Z,26.5
2018-06-17T05:44:27.950Z,25.9
2018-06-17T05:45:18.744Z,25.6
2018-06-17T05:46:08.551Z,25.5
2018-06-17T05:46:58.921Z,25.4
2018-06-17T05:47:48.990Z,25.3
2018-06-17T05:48:38.996Z,25.3
2018-06-17T05:49:29.028Z,25.2
2018-06-17T05:50:19.086Z,25.2
2018-06-17T05:51:08.921Z,25.1
2018-06-17T05:51:59.209Z,25.1
2018-06-17T05:52:49.301Z,25.1
2018-06-17T05:53:39.389Z,25.1
2018-06-17T05:54:29.448Z,25
2018-06-17T05:55:19.469Z,25
2018-06-17T05:56:09.558Z,25
2018-06-17T05:56:59.353Z,24.9
2018-06-17T05:57:49.695Z,24.9
2018-06-17T05:58:39.848Z,24.9
2018-06-17T05:59:29.281Z,24.9
2018-06-17T06:00:19.918Z,24.9
2018-06-17T06:01:09.959Z,24.8
2018-06-17T06:01:59.985Z,24.8
2018-06-17T06:02:50.142Z,24.5
2018-06-17T06:03:39.856Z,26
2018-06-17T06:04:29.672Z,26.8
2018-06-17T06:05:20.221Z,29.1
2018-06-17T06:06:10.071Z,29.9
2018-06-17T06:07:00.162Z,29.9
2018-06-17T06:07:49.915Z,29.4
2018-06-17T06:08:40.522Z,29.1
2018-06-17T06:09:30.076Z,28.8
2018-06-17T06:10:20.543Z,28.9
2018-06-17T06:11:10.139Z,29.3
2018-06-17T06:12:00.052Z,29.6
2018-06-17T06:12:50.250Z,29.8
2018-06-17T06:13:40.088Z,29.8
2018-06-17T06:14:30.483Z,29.7
2018-06-17T06:15:19.726Z,29.6
2018-06-17T06:16:10.635Z,29.4
2018-06-17T06:17:00.101Z,29.4
2018-06-17T06:17:50.958Z,29.5
2018-06-17T06:18:39.891Z,29.5
2018-06-17T06:19:30.892Z,29.6
2018-06-17T06:20:20.707Z,29.6
2018-06-17T06:21:10.980Z,29.5
2018-06-17T06:22:00.230Z,29.5
2018-06-17T06:22:51.103Z,29.5
2018-06-17T06:23:41.639Z,29.6
2018-06-17T06:24:30.930Z,29.6
2018-06-17T06:25:20.958Z,29.6
2018-06-17T06:26:11.315Z,29.6
2018-06-17T06:27:01.076Z,29.6
2018-06-17T06:27:51.761Z,29.7
2018-06-17T06:28:41.217Z,29.8
2018-06-17T06:29:31.872Z,29.8
2018-06-17T06:30:22.189Z,29.9
2018-06-17T06:31:12.005Z,30.1
2018-06-17T06:32:02.305Z,30.1
2018-06-17T06:32:52.067Z,30.1
2018-06-17T06:33:42.409Z,30.1
2018-06-17T06:34:32.498Z,30.3
2018-06-17T06:35:22.510Z,30.6
2018-06-17T06:36:12.587Z,30.6
2018-06-17T06:37:01.852Z,30.6
2018-06-17T06:37:52.729Z,30.6
2018-06-17T06:38:42.251Z,30.8
2018-06-17T06:39:32.573Z,31.2
2018-06-17T06:40:22.616Z,31.6
2018-06-17T06:41:12.710Z,31.7
2018-06-17T06:42:03.030Z,31.8
2018-06-17T06:42:53.262Z,31.8
2018-06-17T06:43:43.175Z,31.8
2018-06-17T06:44:32.986Z,31.8
2018-06-17T06:45:22.511Z,31.9
2018-06-17T06:46:13.074Z,31.9
2018-06-17T06:47:03.185Z,31.9
2018-06-17T06:47:53.218Z,31.9
2018-06-17T06:48:43.265Z,32
2018-06-17T06:49:33.325Z,32
2018-06-17T06:50:23.404Z,32
2018-06-17T06:51:13.721Z,32.1
2018-06-17T06:52:02.701Z,32.1
2018-06-17T06:52:53.383Z,32.1
2018-06-17T06:53:43.426Z,32.2
2018-06-17T06:54:34.016Z,32.2
2018-06-17T06:55:23.250Z,32.3
2018-06-17T06:56:13.308Z,32.3
2018-06-17T06:57:04.248Z,32.3
2018-06-17T06:57:54.295Z,32.5
2018-06-17T06:58:44.110Z,32.6
2018-06-17T06:59:33.843Z,32.6
2018-06-17T07:00:23.320Z,32.7
2018-06-17T07:01:14.000Z,32.8
2018-06-17T07:02:03.835Z,33.1
2018-06-17T07:02:54.077Z,33.4
2018-06-17T07:03:43.873Z,33.7
2018-06-17T07:04:34.473Z,33.9
2018-06-17T07:05:24.617Z,34.2
2018-06-17T07:06:14.051Z,34.4
2018-06-17T07:07:04.707Z,34.5
2018-06-17T07:07:54.996Z,34.7
2018-06-17T07:08:45.098Z,34.9
2018-06-17T07:09:34.582Z,35.1
2018-06-17T07:10:24.644Z,35.3
2018-06-17T07:11:14.704Z,35.4
2018-06-17T07:12:05.342Z,35.6
2018-06-17T07:12:55.364Z,35.8
2018-06-17T07:13:44.614Z,35.9
2018-06-17T07:14:35.485Z,36.1
2018-06-17T07:15:25.022Z,36.3
2018-06-17T07:16:15.210Z,36.4
2018-06-17T07:17:05.740Z,36.6
2018-06-17T07:17:54.933Z,36.8
2018-06-17T07:18:45.838Z,37
2018-06-17T07:19:35.887Z,37.1
2018-06-17T07:20:25.659Z,37.3
2018-06-17T07:21:15.814Z,37.4
2018-06-17T07:22:05.371Z,37.7
2018-06-17T07:22:55.632Z,37.8
2018-06-17T07:23:46.212Z,38
2018-06-17T07:24:36.245Z,38.2
2018-06-17T07:25:26.084Z,38.3
2018-06-17T07:26:15.812Z,38.4
2018-06-17T07:27:05.656Z,38.6
2018-06-17T07:27:56.006Z,38.7
2018-06-17T07:28:46.263Z,38.8
2018-06-17T07:29:36.112Z,38.9
2018-06-17T07:30:26.427Z,38.9
2018-06-17T07:31:16.479Z,38.9
2018-06-17T07:32:06.592Z,38.9
2018-06-17T07:32:56.891Z,39
2018-06-17T07:33:46.791Z,39.3
2018-06-17T07:34:36.775Z,39.6
2018-06-17T07:35:26.555Z,39.9
2018-06-17T07:36:16.622Z,40
2018-06-17T07:37:07.308Z,40.1
2018-06-17T07:37:57.036Z,40.4
2018-06-17T07:38:47.066Z,40.6
2018-06-17T07:39:36.577Z,40.8
2018-06-17T07:40:27.526Z,41
2018-06-17T07:41:17.255Z,41.2
2018-06-17T07:42:06.487Z,41.4
2018-06-17T07:42:57.697Z,41.4
2018-06-17T07:43:48.271Z,41.6
2018-06-17T07:44:37.848Z,41.8
2018-06-17T07:45:27.285Z,42
2018-06-17T07:46:17.636Z,42.2
2018-06-17T07:47:08.008Z,42.3
2018-06-17T07:47:56.928Z,42.3
2018-06-17T07:48:47.847Z,42.4
2018-06-17T07:49:37.937Z,42.7
2018-06-17T07:50:27.657Z,42.7
2018-06-17T07:51:17.481Z,42.7
2018-06-17T07:52:07.872Z,42.6
2018-06-17T07:52:58.144Z,42.6
2018-06-17T07:53:48.229Z,42.7
2018-06-17T07:54:38.540Z,42.9
2018-06-17T07:55:28.385Z,43.1
2018-06-17T07:56:17.867Z,43.4
2018-06-17T07:57:08.836Z,43.7
2018-06-17T07:57:58.601Z,43.8
2018-06-17T07:58:48.881Z,43.8
2018-06-17T07:59:38.405Z,43.6
2018-06-17T08:00:28.969Z,43.7
2018-06-17T08:01:19.073Z,43.9
2018-06-17T08:02:08.838Z,44.3
2018-06-17T08:02:58.393Z,44.6
2018-06-17T08:03:49.262Z,44.8
2018-06-17T08:04:39.375Z,45
2018-06-17T08:05:29.093Z,45.1
2018-06-17T08:06:19.151Z,45.3
2018-06-17T08:07:09.516Z,45.4
2018-06-17T08:07:59.556Z,45.6
2018-06-17T08:08:49.662Z,45.8
2018-06-17T08:09:39.688Z,46
2018-06-17T08:10:29.745Z,46.1
2018-06-17T08:11:19.572Z,46.3
2018-06-17T08:12:09.618Z,46.4
2018-06-17T08:12:59.953Z,46.6
2018-06-17T08:13:49.999Z,46.8
2018-06-17T08:14:40.100Z,46.9
2018-06-17T08:15:29.853Z,47
2018-06-17T08:16:20.203Z,47.2
2018-06-17T08:17:09.741Z,47.4
2018-06-17T08:17:59.788Z,47.4
2018-06-17T08:18:50.404Z,47.6
2018-06-17T08:19:40.170Z,47.8
2018-06-17T08:20:29.968Z,47.9
2018-06-17T08:21:20.615Z,48.1
2018-06-17T08:22:09.837Z,48.2
2018-06-17T08:23:00.455Z,48.4
2018-06-17T08:23:50.543Z,48.5
2018-06-17T08:24:40.871Z,48.6
2018-06-17T08:25:30.360Z,48.8
2018-06-17T08:26:20.691Z,48.9
2018-06-17T08:27:11.008Z,49.1
2018-06-17T08:28:01.092Z,49.2
2018-06-17T08:28:50.349Z,49.4
2018-06-17T08:29:40.926Z,49.4
2018-06-17T08:30:31.607Z,49.6
2018-06-17T08:31:20.795Z,49.8
2018-06-17T08:32:10.587Z,49.9
2018-06-17T08:33:01.466Z,50.1
2018-06-17T08:33:51.554Z,50.3
2018-06-17T08:34:41.056Z,50.4
2018-06-17T08:35:31.711Z,50.5
2018-06-17T08:36:21.788Z,50.6
2018-06-17T08:37:11.554Z,50.8
2018-06-17T08:38:01.635Z,50.9
2018-06-17T08:38:51.082Z,51
2018-06-17T08:39:41.166Z,51.1
2018-06-17T08:40:31.557Z,51.3
2018-06-17T08:41:22.115Z,51.4
2018-06-17T08:42:11.932Z,51.5
2018-06-17T08:43:01.998Z,51.6
2018-06-17T08:43:51.277Z,51.7
2018-06-17T08:44:42.415Z,51.8
2018-06-17T08:46:22.260Z,52
2018-06-17T08:47:12.604Z,52.1
2018-06-17T08:48:02.641Z,52.3
2018-06-17T08:49:42.508Z,52.4
2018-06-17T08:50:32.544Z,52.6
2018-06-17T08:51:22.325Z,52.7
2018-06-17T08:52:12.702Z,52.8
2018-06-17T08:53:03.040Z,52.9
2018-06-17T08:53:52.514Z,53.1
2018-06-17T08:54:42.848Z,53.1
2018-06-17T08:55:33.192Z,53.3
2018-06-17T08:56:22.488Z,53.3
2018-06-17T08:57:12.791Z,53.4
2018-06-17T08:58:02.871Z,53.5
2018-06-17T08:58:52.390Z,53.6
2018-06-17T08:59:42.970Z,53.8
2018-06-17T09:00:32.526Z,53.9
2018-06-17T09:01:23.354Z,53.9
2018-06-17T09:02:13.737Z,54.1
2018-06-17T09:03:03.825Z,54.2
2018-06-17T09:03:53.949Z,54.3
2018-06-17T09:04:43.923Z,54.3
2018-06-17T09:05:33.715Z,54.4
2018-06-17T09:06:23.462Z,54.5
2018-06-17T09:07:13.519Z,54.6
2018-06-17T09:08:03.683Z,54.7
2018-06-17T09:08:53.972Z,54.8
2018-06-17T09:09:44.304Z,54.8
2018-06-17T09:10:33.820Z,54.9
2018-06-17T09:11:23.596Z,55
2018-06-17T09:12:14.570Z,55
2018-06-17T09:13:04.283Z,55
2018-06-17T09:13:54.599Z,54.8
2018-06-17T09:14:44.669Z,54.9
2018-06-17T09:15:34.732Z,54.9
2018-06-17T09:16:23.789Z,55.1
2018-06-17T09:17:14.879Z,55.1
2018-06-17T09:18:04.961Z,55.2
2018-06-17T09:18:54.721Z,55.3
2018-06-17T09:19:44.899Z,55.2
2018-06-17T09:20:34.751Z,55.1
2018-06-17T09:21:24.918Z,54.9
2018-06-17T09:22:14.750Z,54.7
2018-06-17T09:23:05.044Z,54.6
2018-06-17T09:23:54.609Z,54.6
2018-06-17T09:24:45.173Z,54.8
2018-06-17T09:25:35.559Z,55.1
2018-06-17T09:26:25.287Z,55.4
2018-06-17T09:27:15.355Z,55.4
2018-06-17T09:28:05.761Z,55.6
2018-06-17T09:28:54.983Z,55.7
2018-06-17T09:29:45.830Z,55.9
2018-06-17T09:30:35.611Z,56
2018-06-17T09:31:25.985Z,56.1
2018-06-17T09:32:16.879Z,56.1
2018-06-17T09:33:05.613Z,56.3
2018-06-17T09:33:55.073Z,56.4
2018-06-17T09:34:46.227Z,56.4
2018-06-17T09:35:36.316Z,56.6
2018-06-17T09:36:25.535Z,56.6
2018-06-17T09:37:16.419Z,56.8
2018-06-17T09:38:06.352Z,56.8
2018-06-17T09:38:56.100Z,56.9
2018-06-17T09:39:46.603Z,56.9
2018-06-17T09:40:36.394Z,57.1
2018-06-17T09:41:26.225Z,57.1
2018-06-17T09:42:16.238Z,57.3
2018-06-17T09:43:06.858Z,57.3
2018-06-17T09:43:55.804Z,57.3
2018-06-17T09:44:46.983Z,57.1
2018-06-17T09:45:35.970Z,57.1
2018-06-17T09:46:27.185Z,57.3
2018-06-17T09:47:17.181Z,57.2
2018-06-17T09:48:06.440Z,57.1
2018-06-17T09:48:57.076Z,56.8
2018-06-17T09:49:46.847Z,56.9
2018-06-17T09:50:37.410Z,57.1
2018-06-17T09:51:27.502Z,57.4
2018-06-17T09:52:17.607Z,57.7
2018-06-17T09:53:57.147Z,57.8
2018-06-17T09:54:47.810Z,57.8
2018-06-17T09:55:37.582Z,57.6
2018-06-17T09:56:27.653Z,57.3
2018-06-17T09:57:17.419Z,57.1
2018-06-17T09:58:08.034Z,57.3
2018-06-17T09:58:57.810Z,57.6
2018-06-17T09:59:48.229Z,57.9
2018-06-17T10:00:37.954Z,58.1
2018-06-17T10:01:28.219Z,58.2
2018-06-17T10:02:17.519Z,58.3
2018-06-17T10:03:08.156Z,58.4
2018-06-17T10:03:57.737Z,58.4
2018-06-17T10:05:38.326Z,58.7
2018-06-17T10:06:27.387Z,58.8
2018-06-17T10:07:18.764Z,58.9
2018-06-17T10:08:07.952Z,58.9
2018-06-17T10:08:59.045Z,59.1
2018-06-17T10:09:48.653Z,59.2
2018-06-17T10:10:39.015Z,59.3
2018-06-17T10:11:29.082Z,59.3
2018-06-17T10:12:19.088Z,59.4
2018-06-17T10:13:08.636Z,59.5
2018-06-17T10:13:59.251Z,59.5
2018-06-17T10:14:49.113Z,59.6
2018-06-17T10:15:38.790Z,59.6
2018-06-17T10:16:29.176Z,59.8
2018-06-17T10:17:19.513Z,59.8
2018-06-17T10:18:09.270Z,59.8
2018-06-17T10:18:59.093Z,59.6
2018-06-17T10:19:49.421Z,59.6
2018-06-17T10:20:39.804Z,59.8
2018-06-17T10:21:29.799Z,60
2018-06-17T10:22:19.880Z,60.1
2018-06-17T10:23:09.992Z,60.1
2018-06-17T10:23:59.462Z,60.1
2018-06-17T10:24:50.086Z,59.9
2018-06-17T10:25:39.599Z,59.8
2018-06-17T10:26:29.955Z,59.6
2018-06-17T10:27:19.979Z,59.4
2018-06-17T10:28:09.772Z,58.7
2018-06-17T10:29:50.481Z,58.5
2018-06-17T10:30:40.301Z,58.4
2018-06-17T10:31:30.049Z,58.4
2018-06-17T10:32:20.151Z,58.3
2018-06-17T10:33:10.437Z,58.4
2018-06-17T10:33:59.759Z,58.4
2018-06-17T10:34:50.326Z,58.3
2018-06-17T10:35:40.372Z,58.1
2018-06-17T10:36:30.737Z,57.9
2018-06-17T10:38:11.171Z,57.7
2018-06-17T10:39:00.650Z,57.6
2018-06-17T10:39:50.990Z,57.5
2018-06-17T10:40:40.461Z,57.4
2018-06-17T10:41:31.095Z,57.3
2018-06-17T10:42:21.448Z,57.3
2018-06-17T10:43:10.898Z,57.1
2018-06-17T10:44:00.987Z,57.1
2018-06-17T10:44:51.346Z,57
2018-06-17T10:45:41.691Z,56.9
2018-06-17T10:46:31.734Z,56.8
2018-06-17T10:47:20.916Z,56.7
2018-06-17T10:48:11.308Z,56.6
2018-06-17T10:49:02.197Z,56.5
2018-06-17T10:49:51.511Z,56.4
2018-06-17T10:50:41.713Z,56.4
2018-06-17T10:51:32.165Z,56.3
2018-06-17T10:52:21.658Z,56.2
2018-06-17T10:53:12.328Z,56.1
2018-06-17T10:54:02.313Z,56.1
2018-06-17T10:54:52.157Z,56
2018-06-17T10:55:43.533Z,55.9
2018-06-17T10:56:32.536Z,55.8
2018-06-17T10:57:22.071Z,55.7
2018-06-17T10:58:11.831Z,55.6
2018-06-17T10:59:01.635Z,55.6
2018-06-17T10:59:52.759Z,55.4
2018-06-17T11:00:42.798Z,55.4
2018-06-17T11:01:32.088Z,55.3
2018-06-17T11:02:22.225Z,55.2
2018-06-17T11:03:12.246Z,55
2018-06-17T11:04:03.083Z,54.9
2018-06-17T11:04:52.889Z,54.8
2018-06-17T11:05:44.904Z,54.8
2018-06-17T11:06:33.024Z,54.7
2018-06-17T11:07:23.339Z,54.6
2018-06-17T11:08:13.459Z,54.5
2018-06-17T11:09:03.513Z,54.5
2018-06-17T11:09:53.316Z,54.4
2018-06-17T11:10:43.340Z,54.4
2018-06-17T11:11:33.129Z,54.3
2018-06-17T11:12:23.498Z,54.3
2018-06-17T11:13:14.167Z,54.2
2018-06-17T11:14:03.331Z,54.1
2018-06-17T11:14:53.947Z,54.1
2018-06-17T11:15:43.724Z,54
2018-06-17T11:16:32.955Z,53.9
2018-06-17T11:17:23.866Z,53.9
2018-06-17T11:18:14.414Z,53.8
2018-06-17T11:19:04.025Z,53.8
2018-06-17T11:19:54.067Z,53.8
2018-06-17T11:20:43.862Z,53.7
2018-06-17T11:21:34.448Z,53.7
2018-06-17T11:22:24.545Z,53.6
2018-06-17T11:23:14.356Z,53.6
2018-06-17T11:24:04.136Z,53.5
2018-06-17T11:24:53.888Z,53.5
2018-06-17T11:25:44.206Z,53.4
2018-06-17T11:26:34.357Z,53.3
2018-06-17T11:27:24.346Z,53.3
2018-06-17T11:28:14.696Z,53.3
2018-06-17T11:29:04.211Z,53.2
2018-06-17T11:29:54.508Z,53.1
2018-06-17T11:30:45.142Z,53.1
2018-06-17T11:31:35.199Z,53.1
2018-06-17T11:32:24.758Z,53
2018-06-17T11:33:14.807Z,52.9
2018-06-17T11:34:04.581Z,52.9
2018-06-17T11:34:55.183Z,52.9
2018-06-17T11:35:45.566Z,52.8
2018-06-17T11:36:35.666Z,52.8
2018-06-17T11:37:25.107Z,52.7
2018-06-17T11:38:15.170Z,52.7
2018-06-17T11:39:07.108Z,52.6
2018-06-17T11:39:55.653Z,52.6
2018-06-17T11:40:45.892Z,52.5
2018-06-17T11:41:35.767Z,52.5
2018-06-17T11:42:25.833Z,52.4
2018-06-17T11:43:15.843Z,52.3
2018-06-17T11:44:06.238Z,52.2
2018-06-17T11:44:56.003Z,52.1
2018-06-17T11:45:46.096Z,52
2018-06-17T11:48:16.219Z,51.9
2018-06-17T11:49:06.010Z,51.8
2018-06-17T11:49:56.070Z,51.8
2018-06-17T11:50:46.413Z,51.8
2018-06-17T11:51:36.179Z,51.7
2018-06-17T11:52:26.009Z,51.7
2018-06-17T11:53:16.326Z,51.6
2018-06-17T11:54:06.674Z,51.6
2018-06-17T11:54:56.490Z,51.6
2018-06-17T11:55:46.520Z,51.6
2018-06-17T11:56:36.575Z,51.6
2018-06-17T11:57:26.633Z,51.6
2018-06-17T11:58:16.758Z,51.6
2018-06-17T11:59:06.860Z,51.5
2018-06-17T11:59:57.190Z,51.5
2018-06-17T12:00:47.482Z,51.5
2018-06-17T12:01:37.574Z,51.5
2018-06-17T12:02:27.596Z,51.4
2018-06-17T12:03:17.095Z,51.4
2018-06-17T12:04:07.145Z,51.4
2018-06-17T12:04:57.184Z,51.4
2018-06-17T12:05:47.845Z,51.4
2018-06-17T12:06:37.886Z,51.4
2018-06-17T12:07:27.991Z,51.3
2018-06-17T12:08:18.046Z,51.3
2018-06-17T12:09:07.571Z,51.3
2018-06-17T12:09:57.921Z,51.3
2018-06-17T12:10:48.234Z,51.3
2018-06-17T12:11:38.261Z,51.3
2018-06-17T12:12:28.326Z,51.3
2018-06-17T12:13:18.418Z,51.4
2018-06-17T12:14:08.478Z,51.4
2018-06-17T12:14:58.015Z,51.4
2018-06-17T12:15:48.601Z,51.4
2018-06-17T12:16:38.125Z,51.4
2018-06-17T12:17:28.733Z,51.3
2018-06-17T12:18:18.821Z,51.3
2018-06-17T12:19:08.847Z,51.3
2018-06-17T12:19:58.717Z,51.3
2018-06-17T12:20:48.985Z,51.3
2018-06-17T12:21:38.793Z,51.2
2018-06-17T12:22:29.135Z,51.2
2018-06-17T12:23:18.933Z,51.1
2018-06-17T12:24:08.496Z,51.1
2018-06-17T12:24:58.835Z,51.1
2018-06-17T12:25:49.406Z,51.1
2018-06-17T12:26:39.183Z,51.1
2018-06-17T12:27:29.015Z,51.2
2018-06-17T12:28:19.296Z,51.3
2018-06-17T12:29:09.070Z,51.6
2018-06-17T12:29:59.136Z,51.8
2018-06-17T12:30:49.388Z,52
2018-06-17T12:31:39.807Z,52.3
2018-06-17T12:32:29.643Z,52.4
2018-06-17T12:33:19.401Z,52.6
